Time;durP1;ratioP1;P1;durP2;ratioP2;P2;SDS_P1;SDS_P2;PMS_P1;PMS_P2;Temp;Humidity;BMP_temperature;BMP_pressure;BME280_temperature;BME280_humidity;BME280_pressure;Samples;Min_cycle;Max_cycle;Signal;HPM_P1;HPM_P2
2022/03/19 00:01:22;;;;;;;18.33;10.50;;;6.90;99.90;;;;;;2613191;47;20414;-78
2022/03/19 00:03:48;;;;;;;16.03;11.20;;;;;;;;;;2612982;47;20420;-78
2022/03/19 00:06:14;;;;;;;19.10;11.47;;;7.00;99.90;;;;;;2612809;54;20182;-77
2022/03/19 00:08:40;;;;;;;12.73;11.33;;;7.00;99.90;;;;;;2614203;54;20395;-77
2022/03/19 00:11:06;;;;;;;15.40;10.83;;;6.30;99.90;;;;;;2613552;47;21108;-78
2022/03/19 00:13:33;;;;;;;15.27;11.87;;;;;;;;;;2614090;54;20152;-78
2022/03/19 00:16:01;;;;;;;20.17;11.60;;;;;;;;;;2614158;47;20421;-78
2022/03/19 00:18:27;;;;;;;16.33;12.87;;;6.80;99.90;;;;;;2614401;47;20411;-77
2022/03/19 00:20:54;;;;;;;17.53;12.80;;;6.70;99.90;;;;;;2614244;47;20410;-77
2022/03/19 00:23:20;;;;;;;20.47;13.53;;;6.70;99.90;;;;;;2614792;46;20446;-78
2022/03/19 00:25:48;;;;;;;18.70;12.67;;;6.70;99.90;;;;;;2614583;47;20501;-78
2022/03/19 00:28:18;;;;;;;14.83;11.60;;;6.70;99.90;;;;;;2614432;47;20479;-77
2022/03/19 00:30:49;;;;;;;18.83;12.20;;;6.60;99.90;;;;;;2614479;47;20428;-78
2022/03/19 00:33:16;;;;;;;15.83;12.87;;;6.60;99.90;;;;;;2614243;47;20484;-78
2022/03/19 00:35:42;;;;;;;16.50;11.60;;;6.60;99.90;;;;;;2614692;54;20433;-78
2022/03/19 00:38:09;;;;;;;17.33;13.00;;;6.60;99.90;;;;;;2614167;54;20431;-77
2022/03/19 00:40:35;;;;;;;18.17;12.70;;;6.60;99.90;;;;;;2614348;39;20254;-77
2022/03/19 00:43:02;;;;;;;24.13;12.83;;;6.50;99.90;;;;;;2614658;47;20383;-77
2022/03/19 00:45:28;;;;;;;18.53;12.30;;;6.70;99.90;;;;;;2616525;47;20387;-77
2022/03/19 00:47:55;;;;;;;17.50;11.77;;;6.60;99.90;;;;;;2618130;47;20375;-77
2022/03/19 00:50:21;;;;;;;16.73;12.47;;;6.60;99.90;;;;;;2617885;47;20417;-76
2022/03/19 00:52:47;;;;;;;16.63;11.77;;;6.70;99.90;;;;;;2617952;47;20423;-77
2022/03/19 00:55:13;;;;;;;19.23;13.13;;;6.70;99.90;;;;;;2618730;39;20483;-76
2022/03/19 00:57:42;;;;;;;24.17;14.53;;;6.70;99.90;;;;;;2618832;54;20198;-77
2022/03/19 01:00:11;;;;;;;19.93;12.23;;;6.60;99.90;;;;;;2618312;39;20779;-77
2022/03/19 01:02:39;;;;;;;14.73;13.17;;;6.60;99.90;;;;;;2614791;54;20435;-76
2022/03/19 01:05:05;;;;;;;20.70;11.77;;;6.60;99.90;;;;;;2614796;47;20490;-76
2022/03/19 01:07:31;;;;;;;18.40;12.60;;;6.60;99.90;;;;;;2614581;54;20396;-76
2022/03/19 01:09:57;;;;;;;15.90;13.63;;;6.60;99.90;;;;;;2614188;47;20412;-76
2022/03/19 01:12:22;;;;;;;18.13;13.13;;;6.50;99.90;;;;;;2614686;46;20214;-76
2022/03/19 01:14:48;;;;;;;18.17;14.07;;;6.50;99.90;;;;;;2614661;47;20167;-77
2022/03/19 01:17:14;;;;;;;16.17;13.63;;;6.50;99.90;;;;;;2614306;46;20454;-77
2022/03/19 01:19:58;;;;;;;20.30;12.67;;;6.50;99.90;;;;;;2614161;47;20164;-77
2022/03/19 01:22:24;;;;;;;16.83;13.03;;;6.50;99.90;;;;;;2614221;47;20408;-77
2022/03/19 01:24:50;;;;;;;14.63;12.20;;;6.40;99.90;;;;;;2614199;47;20393;-77
2022/03/19 01:27:17;;;;;;;19.23;13.63;;;6.40;99.90;;;;;;2614421;47;20463;-77
2022/03/19 01:29:43;;;;;;;18.50;13.10;;;6.50;99.90;;;;;;2614698;39;20769;-76
2022/03/19 01:32:09;;;;;;;13.93;11.80;;;6.40;99.90;;;;;;2615747;47;20420;-77
2022/03/19 01:34:36;;;;;;;21.70;14.17;;;6.40;99.90;;;;;;2618146;47;20412;-77
2022/03/19 01:37:03;;;;;;;18.73;14.20;;;6.50;99.90;;;;;;2618758;31;20902;-76
2022/03/19 01:39:31;;;;;;;18.30;14.00;;;6.50;99.90;;;;;;2617993;47;20954;-77
2022/03/19 01:41:58;;;;;;;19.17;13.20;;;6.40;99.90;;;;;;2618174;47;21369;-77
2022/03/19 01:44:25;;;;;;;22.20;13.10;;;6.40;99.90;;;;;;2618131;47;20384;-77
2022/03/19 01:47:01;;;;;;;16.97;13.47;;;6.40;99.90;;;;;;2617519;47;20485;-77
2022/03/19 01:49:51;;;;;;;18.03;13.67;;;6.30;99.90;;;;;;2618151;46;20429;-77
2022/03/19 01:52:18;;;;;;;16.20;13.17;;;6.30;99.90;;;;;;2617503;54;20436;-76
2022/03/19 01:54:49;;;;;;;23.20;14.27;;;6.30;99.90;;;;;;2617132;47;20388;-77
2022/03/19 01:57:21;;;;;;;18.10;13.70;;;6.30;99.90;;;;;;2617605;47;20987;-77
2022/03/19 01:59:48;;;;;;;19.20;14.30;;;6.30;99.90;;;;;;2617214;47;20381;-76
2022/03/19 02:02:14;;;;;;;18.53;14.43;;;6.20;99.90;;;;;;2615540;46;20427;-78
2022/03/19 02:04:42;;;;;;;16.47;12.70;;;6.20;99.90;;;;;;2613155;47;21050;-77
2022/03/19 02:07:11;;;;;;;17.50;12.63;;;6.30;99.90;;;;;;2613374;47;20395;-77
2022/03/19 02:09:39;;;;;;;18.80;13.10;;;6.20;99.90;;;;;;2613483;54;20463;-77
2022/03/19 02:12:06;;;;;;;16.30;13.40;;;6.10;99.90;;;;;;2613568;47;20418;-77
2022/03/19 02:14:39;;;;;;;25.50;13.77;;;6.10;99.90;;;;;;2613885;39;20821;-77
2022/03/19 02:17:07;;;;;;;16.60;13.77;;;6.10;99.90;;;;;;2613378;47;21429;-77
2022/03/19 02:19:33;;;;;;;17.70;12.60;;;6.10;99.90;;;;;;2613133;46;20448;-77
2022/03/19 02:21:59;;;;;;;16.67;13.20;;;6.10;99.90;;;;;;2613452;39;21139;-78
2022/03/19 02:27:12;;;;;;;17.17;12.80;;;6.00;99.90;;;;;;2613554;39;20781;-78
2022/03/19 02:29:38;;;;;;;21.10;13.90;;;6.10;99.90;;;;;;2613923;54;20388;-76
2022/03/19 02:32:06;;;;;;;18.27;13.63;;;6.00;99.90;;;;;;2613999;47;20410;-77
2022/03/19 02:34:34;;;;;;;17.10;13.70;;;6.00;99.90;;;;;;2614112;54;20632;-76
2022/03/19 02:37:01;;;;;;;18.73;13.07;;;6.00;99.90;;;;;;2613963;54;20367;-76
2022/03/19 02:39:33;;;;;;;20.90;14.60;;;6.00;99.90;;;;;;2614035;47;20495;-76
2022/03/19 02:42:04;;;;;;;18.83;13.10;;;6.00;99.90;;;;;;2614261;47;20391;-77
2022/03/19 02:44:30;;;;;;;20.10;15.30;;;5.90;99.90;;;;;;2614565;47;20385;-76
2022/03/19 02:46:59;;;;;;;19.60;14.10;;;5.90;99.90;;;;;;2613925;47;20432;-76
2022/03/19 02:49:25;;;;;;;19.70;14.57;;;5.90;99.90;;;;;;2614196;47;20392;-76
2022/03/19 02:51:53;;;;;;;21.90;15.80;;;5.90;99.90;;;;;;2614220;54;20398;-76
2022/03/19 02:54:27;;;;;;;22.10;14.10;;;5.90;99.90;;;;;;2614601;47;20408;-75
2022/03/19 02:56:56;;;;;;;17.57;15.67;;;5.90;99.90;;;;;;2614173;47;20375;-77
2022/03/19 02:59:24;;;;;;;15.90;13.57;;;5.90;99.90;;;;;;2614559;54;20409;-76
2022/03/19 03:01:59;;;;;;;19.10;14.97;;;5.90;99.90;;;;;;2614919;51;20533;-76
2022/03/19 03:04:28;;;;;;;22.50;15.63;;;5.90;99.90;;;;;;2618033;47;20457;-76
2022/03/19 03:06:58;;;;;;;14.37;12.67;;;5.50;99.90;;;;;;2617805;47;20410;-76
2022/03/19 03:09:28;;;;;;;16.30;13.13;;;5.90;99.90;;;;;;2617512;47;20423;-76
2022/03/19 03:11:58;;;;;;;16.27;12.70;;;5.90;99.90;;;;;;2617412;47;20430;-77
2022/03/19 03:14:26;;;;;;;19.37;14.77;;;5.80;99.90;;;;;;2617665;47;20488;-75
2022/03/19 03:16:53;;;;;;;18.73;15.23;;;5.80;99.90;;;;;;2617832;54;20405;-76
2022/03/19 03:19:21;;;;;;;21.07;14.07;;;5.80;99.90;;;;;;2616946;51;20506;-78
2022/03/19 03:21:47;;;;;;;17.57;14.03;;;5.80;99.90;;;;;;2613813;54;20392;-76
2022/03/19 03:24:14;;;;;;;20.67;13.93;;;5.80;99.90;;;;;;2613961;47;20186;-76
2022/03/19 03:26:42;;;;;;;20.40;14.07;;;5.70;99.90;;;;;;2613931;47;20414;-78
2022/03/19 03:29:09;;;;;;;19.37;15.23;;;5.70;99.90;;;;;;2613901;39;20805;-78
2022/03/19 03:31:35;;;;;;;27.03;14.17;;;5.60;99.90;;;;;;2613731;47;20501;-77
2022/03/19 03:34:02;;;;;;;19.97;14.53;;;5.60;99.90;;;;;;2613330;54;20415;-76
2022/03/19 03:36:29;;;;;;;17.23;13.70;;;;;;;;;;2613449;46;20570;-77
2022/03/19 03:38:55;;;;;;;15.07;13.30;;;5.60;99.90;;;;;;2613283;47;20399;-77
2022/03/19 03:41:21;;;;;;;22.07;13.77;;;;;;;;;;2613901;39;20855;-77
2022/03/19 03:43:48;;;;;;;24.53;12.30;;;;;;;;;;2613687;54;20475;-77
2022/03/19 03:46:14;;;;;;;15.50;11.90;;;5.50;99.90;;;;;;2613372;47;21053;-77
2022/03/19 03:48:40;;;;;;;19.60;14.53;;;;;;;;;;2614442;47;20407;-78
2022/03/19 03:51:07;;;;;;;23.50;14.37;;;5.50;99.90;;;;;;2614318;51;20431;-78
2022/03/19 03:53:34;;;;;;;25.63;14.97;;;5.30;99.90;;;;;;2615166;39;20743;-77
2022/03/19 03:56:02;;;;;;;21.40;14.80;;;5.40;99.90;;;;;;2614147;54;20432;-75
2022/03/19 03:58:29;;;;;;;24.40;14.97;;;;;;;;;;2614969;54;20410;-76
2022/03/19 04:00:57;;;;;;;19.27;14.40;;;5.40;99.90;;;;;;2614639;54;20419;-77
2022/03/19 04:03:25;;;;;;;23.70;16.33;;;5.30;99.90;;;;;;2614434;47;20495;-77
2022/03/19 04:05:51;;;;;;;20.77;15.93;;;5.40;99.90;;;;;;2614186;54;20482;-76
2022/03/19 04:08:17;;;;;;;16.73;14.23;;;;;;;;;;2614504;47;20553;-76
2022/03/19 04:10:43;;;;;;;22.27;14.23;;;5.30;99.90;;;;;;2613744;54;20411;-79
2022/03/19 04:13:11;;;;;;;22.57;13.47;;;5.30;99.90;;;;;;2614595;51;20910;-77
2022/03/19 04:15:36;;;;;;;22.77;14.90;;;5.20;99.90;;;;;;2614263;47;20960;-77
2022/03/19 04:18:03;;;;;;;22.77;15.73;;;5.10;99.90;;;;;;2614805;54;20394;-77
2022/03/19 04:20:29;;;;;;;19.17;12.70;;;;;;;;;;2614147;52;20722;-76
2022/03/19 04:22:55;;;;;;;22.40;13.87;;;5.30;99.90;;;;;;2614181;47;20440;-77
2022/03/19 04:25:23;;;;;;;22.77;15.33;;;5.10;99.90;;;;;;2614027;47;20419;-77
2022/03/19 04:27:54;;;;;;;20.53;14.60;;;5.00;99.90;;;;;;2614598;47;20420;-77
2022/03/19 04:30:22;;;;;;;16.50;13.27;;;5.10;99.90;;;;;;2614974;54;20422;-78
2022/03/19 04:32:57;;;;;;;22.80;17.40;;;5.00;99.90;;;;;;2614439;47;20400;-78
2022/03/19 04:38:13;;;;;;;19.53;15.27;;;5.00;99.90;;;;;;2614458;47;20406;-78
2022/03/19 04:40:41;;;;;;;31.77;15.07;;;5.00;99.90;;;;;;2614587;47;20959;-77
2022/03/19 04:43:08;;;;;;;18.13;13.57;;;5.00;99.90;;;;;;2614515;54;20427;-78
2022/03/19 04:45:35;;;;;;;19.30;14.97;;;5.00;99.90;;;;;;2613730;51;20961;-78
2022/03/19 04:48:02;;;;;;;18.97;15.83;;;5.00;99.90;;;;;;2615560;47;20423;-78
2022/03/19 04:50:29;;;;;;;24.63;15.57;;;5.00;99.90;;;;;;2615836;39;20500;-76
2022/03/19 04:52:58;;;;;;;24.03;15.40;;;;;;;;;;2616057;54;20431;-76
2022/03/19 04:55:26;;;;;;;19.03;15.37;;;4.90;99.90;;;;;;2615968;47;20435;-78
2022/03/19 04:57:51;;;;;;;20.00;14.53;;;4.90;99.90;;;;;;2615635;46;20383;-76
2022/03/19 05:00:19;;;;;;;35.17;16.17;;;;;;;;;;2615133;31;20873;-77
2022/03/19 05:02:46;;;;;;;21.73;14.80;;;;;;;;;;2615107;47;20503;-78
2022/03/19 05:05:12;;;;;;;17.93;13.27;;;;;;;;;;2615406;47;20414;-77
2022/03/19 05:07:39;;;;;;;28.57;16.10;;;4.70;99.90;;;;;;2615742;47;20424;-78
2022/03/19 05:12:52;;;;;;;20.40;13.70;;;;;;;;;;2615661;54;20394;-77
2022/03/19 05:15:20;;;;;;;23.53;15.90;;;4.60;99.90;;;;;;2613835;47;20432;-76
2022/03/19 05:17:46;;;;;;;22.50;14.83;;;;;;;;;;2614149;47;20424;-78
2022/03/19 05:20:13;;;;;;;20.20;15.60;;;4.60;99.90;;;;;;2613856;47;20551;-76
2022/03/19 05:22:40;;;;;;;23.20;16.90;;;4.70;99.90;;;;;;2613717;47;20450;-76
2022/03/19 05:25:08;;;;;;;24.27;15.33;;;4.60;99.90;;;;;;2614121;54;20383;-78
2022/03/19 05:27:34;;;;;;;17.47;15.60;;;4.70;99.90;;;;;;2614542;54;20402;-79
2022/03/19 05:30:00;;;;;;;22.73;16.17;;;4.80;99.90;;;;;;2614322;31;20898;-79
2022/03/19 05:32:26;;;;;;;23.40;15.33;;;4.60;99.90;;;;;;2613507;54;20159;-77
2022/03/19 05:34:54;;;;;;;24.43;17.57;;;4.60;99.90;;;;;;2613347;47;20431;-77
2022/03/19 05:37:20;;;;;;;22.87;16.60;;;;;;;;;;2613493;47;20410;-77
2022/03/19 05:39:46;;;;;;;24.03;16.17;;;;;;;;;;2613465;47;20533;-76
2022/03/19 05:42:12;;;;;;;22.27;18.03;;;4.60;99.90;;;;;;2613178;47;21255;-76
2022/03/19 05:44:39;;;;;;;21.30;16.57;;;;;;;;;;2613650;47;20427;-76
2022/03/19 05:47:05;;;;;;;26.23;17.20;;;4.60;99.90;;;;;;2613173;39;20605;-77
2022/03/19 05:49:31;;;;;;;30.83;17.10;;;4.40;99.90;;;;;;2613336;47;20429;-75
2022/03/19 05:51:58;;;;;;;24.63;16.40;;;4.60;99.90;;;;;;2612971;46;20423;-77
2022/03/19 05:54:27;;;;;;;24.53;15.33;;;4.60;99.90;;;;;;2613131;47;20411;-76
2022/03/19 05:56:54;;;;;;;31.77;15.90;;;4.60;99.90;;;;;;2612962;51;20411;-77
2022/03/19 05:59:21;;;;;;;22.70;16.50;;;4.60;99.90;;;;;;2613654;54;20394;-77
2022/03/19 06:01:47;;;;;;;26.43;16.97;;;;;;;;;;2613052;47;20451;-78
2022/03/19 06:04:15;;;;;;;23.67;16.70;;;;;;;;;;2614536;31;20869;-77
2022/03/19 06:06:42;;;;;;;25.93;16.50;;;;;;;;;;2612735;47;20411;-78
2022/03/19 06:09:08;;;;;;;29.73;19.20;;;4.70;99.90;;;;;;2614162;39;20827;-78
2022/03/19 06:11:33;;;;;;;22.13;16.70;;;4.80;99.90;;;;;;2613455;39;20602;-77
2022/03/19 06:14:00;;;;;;;22.60;17.53;;;;;;;;;;2614221;54;20946;-78
2022/03/19 06:16:26;;;;;;;24.77;15.90;;;;;;;;;;2613097;47;20192;-78
2022/03/19 06:18:52;;;;;;;27.73;18.60;;;4.90;99.90;;;;;;2613793;47;20407;-76
2022/03/19 06:21:20;;;;;;;30.13;18.87;;;5.10;99.90;;;;;;2613715;47;20407;-77
2022/03/19 06:23:47;;;;;;;32.27;19.60;;;5.10;99.90;;;;;;2613703;47;20435;-78
2022/03/19 06:26:14;;;;;;;26.30;18.70;;;5.30;99.90;;;;;;2613595;54;20492;-78
2022/03/19 06:28:40;;;;;;;25.90;18.60;;;5.40;99.90;;;;;;2613259;54;20437;-77
2022/03/19 06:31:06;;;;;;;26.17;16.30;;;5.60;99.90;;;;;;2613379;47;20428;-79
2022/03/19 06:33:32;;;;;;;23.50;16.53;;;5.70;99.90;;;;;;2613323;51;20454;-77
2022/03/19 06:38:45;;;;;;;22.17;15.47;;;6.10;99.90;;;;;;2614157;47;20390;-77
2022/03/19 06:41:11;;;;;;;25.30;15.67;;;6.40;99.90;;;;;;2614546;54;20412;-77
2022/03/19 06:43:37;;;;;;;20.37;14.67;;;6.60;99.90;;;;;;2614149;54;20408;-76
2022/03/19 06:46:04;;;;;;;22.63;14.93;;;6.80;99.90;;;;;;2613694;47;20477;-76
2022/03/19 06:48:30;;;;;;;18.60;13.60;;;7.00;99.90;;;;;;2613900;47;20455;-77
2022/03/19 06:50:56;;;;;;;18.37;14.23;;;7.10;99.90;;;;;;2613103;47;20436;-78
2022/03/19 06:53:23;;;;;;;26.10;13.73;;;7.30;99.90;;;;;;2613340;46;20436;-78
2022/03/19 06:55:49;;;;;;;17.43;11.90;;;7.60;99.90;;;;;;2613064;54;20425;-77
2022/03/19 06:58:15;;;;;;;24.00;13.93;;;7.80;99.90;;;;;;2612518;54;20450;-77
2022/03/19 07:00:41;;;;;;;21.43;13.70;;;8.10;99.90;;;;;;2612931;54;20417;-76
2022/03/19 07:03:08;;;;;;;17.00;13.00;;;8.10;99.90;;;;;;2612638;47;20526;-76
2022/03/19 07:05:34;;;;;;;14.50;11.27;;;8.30;99.90;;;;;;2613524;47;21023;-76
2022/03/19 07:08:02;;;;;;;20.80;12.83;;;8.30;99.90;;;;;;2613380;54;20981;-76
2022/03/19 07:10:28;;;;;;;15.23;11.63;;;8.30;99.90;;;;;;2612951;54;20520;-77
2022/03/19 07:12:58;;;;;;;18.93;11.40;;;8.60;99.90;;;;;;2612599;54;20433;-76
2022/03/19 07:15:29;;;;;;;14.10;11.20;;;8.60;99.90;;;;;;2613561;47;20509;-77
2022/03/19 07:17:56;;;;;;;13.73;10.17;;;;;;;;;;2613192;47;20465;-77
2022/03/19 07:20:22;;;;;;;14.23;10.67;;;9.00;99.90;;;;;;2613442;39;20780;-78
2022/03/19 07:22:53;;;;;;;20.10;12.60;;;9.30;99.90;;;;;;2613532;47;20409;-77
2022/03/19 07:25:22;;;;;;;16.20;11.70;;;9.50;99.90;;;;;;2612986;47;20422;-77
2022/03/19 07:27:54;;;;;;;14.80;11.33;;;9.70;99.90;;;;;;2614202;39;20784;-78
2022/03/19 07:30:20;;;;;;;14.43;9.40;;;9.80;99.90;;;;;;2613297;46;20445;-77
2022/03/19 07:32:47;;;;;;;14.77;11.47;;;9.90;99.90;;;;;;2613752;47;20403;-77
2022/03/19 07:35:14;;;;;;;20.87;10.87;;;9.90;99.90;;;;;;2614129;39;20815;-77
2022/03/19 07:37:43;;;;;;;18.23;10.13;;;10.20;99.90;;;;;;2613084;47;20430;-77
2022/03/19 07:40:14;;;;;;;11.03;10.00;;;10.40;99.90;;;;;;2613422;54;20396;-77
2022/03/19 07:42:41;;;;;;;17.53;10.33;;;10.70;97.70;;;;;;2612836;54;20407;-77
2022/03/19 07:45:08;;;;;;;17.17;11.00;;;10.70;93.90;;;;;;2613192;47;20497;-78
2022/03/19 07:47:35;;;;;;;12.20;10.50;;;10.70;93.20;;;;;;2613383;46;20450;-77
2022/03/19 07:50:02;;;;;;;12.50;9.70;;;10.50;93.40;;;;;;2613210;54;20411;-77
2022/03/19 07:52:31;;;;;;;12.63;10.70;;;10.50;94.30;;;;;;2613379;54;20452;-77
2022/03/19 07:55:02;;;;;;;12.23;9.00;;;11.10;93.10;;;;;;2613726;47;20514;-76
2022/03/19 07:57:28;;;;;;;18.37;10.33;;;10.80;92.30;;;;;;2613262;47;20400;-77
2022/03/19 07:59:57;;;;;;;18.93;11.10;;;11.20;86.50;;;;;;2614535;54;21063;-76
2022/03/19 08:02:23;;;;;;;12.53;10.47;;;11.40;79.40;;;;;;2613382;47;20476;-76
2022/03/19 08:04:49;;;;;;;16.60;10.17;;;11.30;74.30;;;;;;2613865;54;20430;-76
2022/03/19 08:07:19;;;;;;;14.53;9.80;;;;;;;;;;2614034;54;20920;-78
2022/03/19 08:09:46;;;;;;;14.07;8.90;;;11.80;79.40;;;;;;2613193;47;20415;-77
2022/03/19 08:12:13;;;;;;;11.70;8.87;;;11.80;69.70;;;;;;2613555;47;20421;-76
2022/03/19 08:14:39;;;;;;;12.97;9.90;;;12.30;59.30;;;;;;2613626;47;20412;-78
2022/03/19 08:17:05;;;;;;;12.30;9.40;;;12.30;59.60;;;;;;2613644;54;20408;-77
2022/03/19 08:19:32;;;;;;;18.83;9.80;;;12.40;57.90;;;;;;2613330;54;20450;-76
2022/03/19 08:21:59;;;;;;;16.60;8.70;;;12.20;57.20;;;;;;2613505;54;20935;-77
2022/03/19 08:24:25;;;;;;;14.33;10.10;;;12.00;59.30;;;;;;2613421;47;20420;-76
2022/03/19 08:26:55;;;;;;;12.33;10.23;;;12.00;58.40;;;;;;2614048;47;20516;-77
2022/03/19 08:29:24;;;;;;;13.00;9.33;;;12.60;51.50;;;;;;2613662;47;20179;-78
2022/03/19 08:31:52;;;;;;;14.27;10.40;;;12.70;52.50;;;;;;2613705;47;20915;-77
2022/03/19 08:34:18;;;;;;;9.80;8.83;;;12.90;47.70;;;;;;2614126;47;20962;-78
2022/03/19 08:36:43;;;;;;;18.47;9.87;;;12.80;42.70;;;;;;2614980;51;20398;-77
2022/03/19 08:41:55;;;;;;;19.00;8.77;;;;;;;;;;2614246;47;20159;-77
2022/03/19 08:44:21;;;;;;;9.43;8.53;;;12.80;37.00;;;;;;2614406;54;20434;-77
2022/03/19 08:46:47;;;;;;;11.50;8.30;;;13.20;30.80;;;;;;2614399;54;20502;-77
2022/03/19 08:49:13;;;;;;;14.33;8.40;;;13.20;31.20;;;;;;2614712;54;20375;-78
2022/03/19 08:51:42;;;;;;;13.63;8.63;;;13.40;27.90;;;;;;2615149;54;20446;-77
2022/03/19 08:54:15;;;;;;;9.70;8.23;;;13.30;27.50;;;;;;2614665;54;20551;-76
2022/03/19 08:56:43;;;;;;;14.03;8.90;;;13.20;24.00;;;;;;2615028;54;20447;-78
2022/03/19 08:59:10;;;;;;;12.37;7.93;;;13.20;23.80;;;;;;2614744;54;20412;-77
2022/03/19 09:01:39;;;;;;;9.40;8.47;;;13.40;22.60;;;;;;2614384;46;20427;-78
2022/03/19 09:04:07;;;;;;;10.73;7.80;;;13.80;20.50;;;;;;2614490;54;20396;-77
2022/03/19 09:06:34;;;;;;;14.67;8.60;;;13.90;18.40;;;;;;2615776;54;20399;-78
2022/03/19 09:09:02;;;;;;;12.00;9.27;;;14.10;17.10;;;;;;2615048;54;20942;-78
2022/03/19 09:11:29;;;;;;;9.20;8.03;;;14.20;14.40;;;;;;2614145;47;20426;-79
2022/03/19 09:13:56;;;;;;;8.20;6.83;;;14.20;20.40;;;;;;2614505;47;20500;-78
2022/03/19 09:16:52;;;;;;;10.43;8.27;;;14.20;12.60;;;;;;2617373;54;20977;-77
2022/03/19 09:19:19;;;;;;;11.30;7.47;;;14.50;10.90;;;;;;2614106;54;20410;-76
2022/03/19 09:21:49;;;;;;;11.20;8.40;;;14.70;9.20;;;;;;2617302;54;20420;-76
2022/03/19 09:24:15;;;;;;;9.30;8.03;;;14.80;8.30;;;;;;2614246;54;20494;-78
2022/03/19 09:26:42;;;;;;;10.63;7.70;;;14.60;5.50;;;;;;2616960;54;20428;-78
2022/03/19 09:29:09;;;;;;;8.63;7.93;;;14.20;7.80;;;;;;2616563;47;20419;-78
2022/03/19 09:31:35;;;;;;;11.13;9.40;;;14.70;7.30;;;;;;2614795;47;20561;-78
2022/03/19 09:34:01;;;;;;;8.00;7.30;;;15.10;4.80;;;;;;2611983;47;20419;-79
2022/03/19 09:36:27;;;;;;;10.50;7.20;;;15.10;1.00;;;;;;2610910;39;20857;-79
2022/03/19 09:38:53;;;;;;;9.40;7.37;;;14.70;2.10;;;;;;2613149;51;20415;-78
2022/03/19 09:41:19;;;;;;;9.47;8.47;;;14.50;1.50;;;;;;2612910;47;20187;-80
2022/03/19 09:43:45;;;;;;;10.97;7.87;;;14.50;2.70;;;;;;2614046;54;20659;-79
2022/03/19 09:46:11;;;;;;;9.23;8.43;;;14.50;1.40;;;;;;2614282;54;21623;-80
2022/03/19 09:48:37;;;;;;;11.90;7.43;;;14.20;1.00;;;;;;2612561;47;20174;-78
2022/03/19 09:51:07;;;;;;;8.73;7.83;;;13.80;1.00;;;;;;2614086;39;21076;-80
2022/03/19 09:53:34;;;;;;;10.70;8.50;;;13.90;1.00;;;;;;2611700;54;20423;-80
2022/03/19 09:56:03;;;;;;;8.70;7.47;;;15.20;2.40;;;;;;2611889;54;20403;-81
2022/03/19 09:58:29;;;;;;;10.47;9.33;;;14.30;1.00;;;;;;2612437;47;20539;-82
2022/03/19 10:01:02;;;;;;;12.30;9.57;;;14.90;4.30;;;;;;2612523;54;21048;-82
2022/03/19 10:03:28;;;;;;;10.67;9.80;;;15.30;1.00;;;;;;2612004;54;21221;-81
2022/03/19 10:08:55;;;;;;;10.30;8.83;;;15.60;1.00;;;;;;2612757;47;20163;-80
2022/03/19 10:11:22;;;;;;;11.70;8.40;;;15.20;1.00;;;;;;2612570;54;20395;-81
2022/03/19 10:13:50;;;;;;;12.87;11.70;;;14.90;1.00;;;;;;2611684;54;20898;-79
2022/03/19 10:16:25;;;;;;;9.73;9.10;;;14.70;1.00;;;;;;2612341;47;20424;-80
2022/03/19 10:18:58;;;;;;;14.47;9.70;;;14.70;1.00;;;;;;2612784;46;20418;-80
2022/03/19 10:21:25;;;;;;;10.37;9.07;;;14.90;1.00;;;;;;2612948;54;20412;-80
2022/03/19 10:23:51;;;;;;;9.77;7.43;;;15.00;1.00;;;;;;2612620;54;20411;-81
2022/03/19 10:26:24;;;;;;;9.30;8.60;;;15.10;1.00;;;;;;2611760;46;20443;-80
2022/03/19 10:28:57;;;;;;;14.13;10.10;;;15.20;1.00;;;;;;2612364;47;20511;-80
2022/03/19 10:31:31;;;;;;;9.43;8.50;;;15.40;1.00;;;;;;2611929;54;20438;-81
2022/03/19 10:33:57;;;;;;;9.87;9.27;;;15.10;1.00;;;;;;2616762;54;20403;-80
2022/03/19 10:36:30;;;;;;;9.57;8.57;;;14.80;1.00;;;;;;2616570;47;20412;-83
2022/03/19 10:38:58;;;;;;;10.60;9.57;;;14.80;1.00;;;;;;2616926;50;20415;-80
2022/03/19 10:41:26;;;;;;;10.10;9.33;;;14.90;1.00;;;;;;2617743;39;20772;-82
2022/03/19 10:43:53;;;;;;;10.83;9.93;;;15.10;1.00;;;;;;2617664;54;20423;-81
2022/03/19 10:46:19;;;;;;;11.97;11.17;;;15.10;1.00;;;;;;2617297;54;20403;-80
2022/03/19 10:48:50;;;;;;;10.93;10.13;;;15.30;1.00;;;;;;2612255;47;20442;-82
2022/03/19 10:51:17;;;;;;;10.50;9.53;;;15.40;1.00;;;;;;2613015;47;20431;-80
2022/03/19 10:53:43;;;;;;;10.37;9.63;;;15.50;1.00;;;;;;2613547;51;20531;-79
2022/03/19 10:56:10;;;;;;;10.17;9.23;;;15.80;1.00;;;;;;2612316;54;21401;-79
2022/03/19 10:58:36;;;;;;;9.20;8.60;;;15.40;1.00;;;;;;2612025;54;21906;-82
2022/03/19 11:01:02;;;;;;;10.13;9.53;;;15.40;1.00;;;;;;2616433;54;20412;-80
2022/03/19 11:03:30;;;;;;;8.77;8.23;;;15.60;1.00;;;;;;2612261;54;20185;-81
2022/03/19 11:06:04;;;;;;;9.10;8.50;;;15.50;1.00;;;;;;2612040;47;20512;-80
2022/03/19 11:08:39;;;;;;;8.23;7.63;;;15.50;1.00;;;;;;2611854;47;21196;-80
2022/03/19 11:11:14;;;;;;;8.80;8.10;;;15.60;1.00;;;;;;2610689;54;20409;-80
2022/03/19 11:13:46;;;;;;;8.50;7.90;;;15.90;1.00;;;;;;2612366;54;20439;-80
2022/03/19 11:16:14;;;;;;;9.47;8.80;;;16.00;1.00;;;;;;2611793;54;20424;-80
2022/03/19 11:18:40;;;;;;;8.97;8.27;;;16.30;1.00;;;;;;2611988;54;20427;-80
2022/03/19 11:21:09;;;;;;;9.70;8.83;;;16.20;1.00;;;;;;2611783;54;20407;-80
2022/03/19 11:23:57;;;;;;;9.37;8.50;;;16.00;1.00;;;;;;2612255;54;20423;-80
2022/03/19 11:26:28;;;;;;;10.03;8.03;;;16.10;1.00;;;;;;2613565;54;20407;-80
2022/03/19 11:28:54;;;;;;;9.40;8.57;;;16.10;1.00;;;;;;2613680;54;20395;-81
2022/03/19 11:31:26;;;;;;;11.03;8.70;;;15.90;1.00;;;;;;2616012;47;20418;-81
2022/03/19 11:34:03;;;;;;;9.37;8.97;;;15.80;1.00;;;;;;2614224;54;20430;-80
2022/03/19 11:36:29;;;;;;;9.13;8.33;;;15.90;1.00;;;;;;2613959;47;20473;-81
2022/03/19 11:38:57;;;;;;;9.53;8.63;;;15.90;1.00;;;;;;2613242;54;20940;-80
2022/03/19 11:41:26;;;;;;;9.13;8.33;;;15.60;1.00;;;;;;2613994;39;20823;-80
2022/03/19 11:44:18;;;;;;;8.50;8.00;;;15.50;1.00;;;;;;2615827;54;20431;-81
2022/03/19 11:47:09;;;;;;;10.70;9.60;;;15.50;1.00;;;;;;2614303;54;20375;-81
2022/03/19 11:50:02;;;;;;;10.10;9.30;;;15.60;1.00;;;;;;2612762;54;20415;-79
2022/03/19 11:52:31;;;;;;;9.87;9.03;;;15.80;1.00;;;;;;2612641;47;20412;-80
2022/03/19 11:55:03;;;;;;;9.60;9.00;;;16.10;1.00;;;;;;2613728;47;20391;-81
2022/03/19 11:57:50;;;;;;;10.17;9.27;;;15.80;1.00;;;;;;2613787;47;20486;-80
2022/03/19 12:00:19;;;;;;;9.87;8.97;;;16.20;1.00;;;;;;2613514;54;20395;-80
2022/03/19 12:03:12;;;;;;;10.57;9.67;;;16.30;1.00;;;;;;2613323;47;20427;-79
2022/03/19 12:05:48;;;;;;;11.13;10.43;;;16.30;1.00;;;;;;2614645;39;20746;-80
2022/03/19 12:08:18;;;;;;;9.63;8.93;;;16.20;1.00;;;;;;2613650;47;20383;-79
2022/03/19 12:10:57;;;;;;;9.60;8.90;;;16.20;1.00;;;;;;2614436;39;21028;-81
2022/03/19 12:13:24;;;;;;;9.07;8.40;;;;;;;;;;2615802;39;20834;-80
2022/03/19 12:15:51;;;;;;;9.73;8.93;;;16.30;1.00;;;;;;2615673;54;21003;-80
2022/03/19 12:18:32;;;;;;;9.40;8.73;;;16.80;1.00;;;;;;2615356;47;20399;-81
2022/03/19 12:21:16;;;;;;;9.20;8.60;;;16.70;1.00;;;;;;2614502;47;20395;-81
2022/03/19 12:24:08;;;;;;;9.47;8.70;;;16.70;1.00;;;;;;2615153;54;20958;-80
2022/03/19 12:26:45;;;;;;;9.80;8.90;;;17.10;1.00;;;;;;2617296;39;20867;-82
2022/03/19 12:29:16;;;;;;;8.53;7.97;;;16.90;1.00;;;;;;2618939;47;20379;-80
2022/03/19 12:31:50;;;;;;;8.60;8.00;;;15.80;1.00;;;;;;2619512;54;20560;-81
2022/03/19 12:34:17;;;;;;;8.80;8.40;;;16.10;1.00;;;;;;2621145;54;20390;-80
2022/03/19 12:36:46;;;;;;;8.33;7.87;;;15.90;1.00;;;;;;2620954;47;20400;-80
2022/03/19 12:39:12;;;;;;;8.63;8.00;;;16.20;1.00;;;;;;2625303;46;20380;-79
2022/03/19 12:41:40;;;;;;;8.90;8.20;;;16.40;1.00;;;;;;2626156;54;20547;-80
2022/03/19 12:44:18;;;;;;;9.27;8.67;;;16.10;1.00;;;;;;2623613;47;20406;-80
2022/03/19 12:46:44;;;;;;;8.97;8.37;;;16.70;1.00;;;;;;2621131;54;20492;-80
2022/03/19 12:49:12;;;;;;;8.37;7.77;;;17.10;1.00;;;;;;2620349;47;20431;-81
2022/03/19 12:51:47;;;;;;;8.60;8.17;;;17.10;1.00;;;;;;2621091;54;20416;-81
2022/03/19 12:54:32;;;;;;;8.03;7.33;;;17.00;1.00;;;;;;2621979;47;20427;-81
2022/03/19 12:57:10;;;;;;;7.83;7.33;;;16.70;1.00;;;;;;2619446;47;20559;-81
2022/03/19 12:59:37;;;;;;;6.80;6.30;;;17.10;1.00;;;;;;2614638;54;20419;-80
2022/03/19 13:02:03;;;;;;;7.03;6.63;;;17.00;1.00;;;;;;2612318;46;20459;-80
2022/03/19 13:04:31;;;;;;;7.37;6.90;;;17.20;1.00;;;;;;2613386;54;20407;-81
2022/03/19 13:06:58;;;;;;;8.07;7.57;;;17.60;1.00;;;;;;2617728;54;20396;-81
2022/03/19 13:09:38;;;;;;;7.33;6.77;;;16.80;1.00;;;;;;2618199;51;20436;-81
2022/03/19 13:12:09;;;;;;;9.90;5.60;;;16.60;1.00;;;;;;2617842;54;20975;-81
2022/03/19 13:14:36;;;;;;;6.47;6.07;;;16.60;1.00;;;;;;2618486;54;20410;-82